createdAt,value
2018-09-09T00:00:49.750Z,4.5
2018-09-09T00:02:49.948Z,4.5
2018-09-09T00:04:50.311Z,4.3
2018-09-09T00:06:50.427Z,4.4
2018-09-09T00:08:50.489Z,4.2
2018-09-09T00:10:49.553Z,4.4
2018-09-09T00:12:49.636Z,4.4
2018-09-09T00:14:49.720Z,4.4
2018-09-09T00:16:49.871Z,4.4
2018-09-09T00:18:49.807Z,4.8
2018-09-09T00:20:49.780Z,4.7
2018-09-09T00:22:49.759Z,4.7
2018-09-09T00:24:49.861Z,4.3
2018-09-09T00:26:50.017Z,4.3
2018-09-09T00:28:50.036Z,4.4
2018-09-09T00:30:50.022Z,4.4
2018-09-09T00:32:50.018Z,4.3
2018-09-09T00:34:49.564Z,4.3
2018-09-09T00:36:49.734Z,4.5
2018-09-09T00:38:49.732Z,4.5
2018-09-09T00:40:49.769Z,4.4
2018-09-09T00:42:49.945Z,4.8
2018-09-09T00:44:49.909Z,4.8
2018-09-09T00:46:50.116Z,5.2
2018-09-09T00:48:50.052Z,5.2
2018-09-09T00:50:50.020Z,4.6
2018-09-09T00:52:50.013Z,4.7
2018-09-09T00:54:50.119Z,4.5
2018-09-09T00:56:50.344Z,4.7
2018-09-09T00:58:50.352Z,4.9
2018-09-09T01:00:50.336Z,4.6
2018-09-09T01:02:50.122Z,4.6
2018-09-09T01:04:50.315Z,4.3
2018-09-09T01:06:50.466Z,4.6
2018-09-09T01:08:49.637Z,4.6
2018-09-09T01:10:49.684Z,4.6
2018-09-09T01:12:49.702Z,4.5
2018-09-09T01:14:49.811Z,4.9
2018-09-09T01:16:50.099Z,4.9
2018-09-09T01:18:50.110Z,4.5
2018-09-09T01:20:50.178Z,4.5
2018-09-09T01:22:50.252Z,4.5
2018-09-09T01:24:50.289Z,4.6
2018-09-09T01:26:50.560Z,4.9
2018-09-09T01:28:49.572Z,4.8
2018-09-09T01:30:49.659Z,4.8
2018-09-09T01:32:49.725Z,5.0
2018-09-09T01:34:50.276Z,4.6
2018-09-09T01:36:49.580Z,4.8
2018-09-09T01:38:49.723Z,4.8
2018-09-09T01:40:49.705Z,4.7
2018-09-09T01:42:49.876Z,4.5
2018-09-09T01:44:49.921Z,4.9
2018-09-09T01:46:50.008Z,5.1
2018-09-09T01:48:50.044Z,5.1
2018-09-09T01:50:50.050Z,4.6
2018-09-09T01:52:50.095Z,4.6
2018-09-09T01:54:50.095Z,4.6
2018-09-09T01:56:50.366Z,5.1
2018-09-09T01:58:50.387Z,5.1
2018-09-09T02:00:50.432Z,4.6
2018-09-09T02:02:50.416Z,5.0
2018-09-09T02:04:49.956Z,5.0
2018-09-09T02:06:50.231Z,5.0
2018-09-09T02:08:49.662Z,4.6
2018-09-09T02:10:49.732Z,5.2
2018-09-09T02:12:49.764Z,4.7
2018-09-09T02:14:49.785Z,4.7
2018-09-09T02:16:50.016Z,4.7
2018-09-09T02:18:50.076Z,4.7
2018-09-09T02:20:50.016Z,4.8
2018-09-09T02:22:50.076Z,4.8
2018-09-09T02:24:50.140Z,4.8
2018-09-09T02:26:50.278Z,4.8
2018-09-09T02:28:50.398Z,4.9
2018-09-09T02:30:50.391Z,5.1
2018-09-09T02:32:50.481Z,4.8
2018-09-09T02:34:49.768Z,5.0
2018-09-09T02:36:49.968Z,5.0
2018-09-09T02:38:50.130Z,5.0
2018-09-09T02:40:50.234Z,5.0
2018-09-09T02:42:50.236Z,5.5
2018-09-09T02:44:50.415Z,5.5
2018-09-09T02:46:49.890Z,5.8
2018-09-09T02:48:49.943Z,5.1
2018-09-09T02:50:49.948Z,5.3
2018-09-09T02:52:50.021Z,4.9
2018-09-09T02:54:50.220Z,5.3
2018-09-09T02:56:50.438Z,5.3
2018-09-09T02:58:50.431Z,5.1
2018-09-09T03:00:49.558Z,5.2
2018-09-09T03:02:49.922Z,5.2
2018-09-09T03:04:50.293Z,5.2
2018-09-09T03:06:50.486Z,5.0
2018-09-09T03:08:50.496Z,5.1
2018-09-09T03:10:50.521Z,5.2
2018-09-09T03:12:50.489Z,5.2
2018-09-09T03:14:49.567Z,5.0
2018-09-09T03:16:49.884Z,5.0
2018-09-09T03:18:49.931Z,5.2
2018-09-09T03:20:50.014Z,5.0
2018-09-09T03:22:50.038Z,5.2
2018-09-09T03:24:49.979Z,5.2
2018-09-09T03:26:50.260Z,5.3
2018-09-09T03:28:50.685Z,5.1
2018-09-09T03:30:50.355Z,5.9
2018-09-09T03:32:50.401Z,5.3
2018-09-09T03:34:49.762Z,5.3
2018-09-09T03:36:49.816Z,5.4
2018-09-09T03:38:49.872Z,5.3
2018-09-09T03:40:49.946Z,5.4
2018-09-09T03:42:50.056Z,5.5
2018-09-09T03:44:50.127Z,5.5
2018-09-09T03:46:50.250Z,5.7
2018-09-09T03:48:50.292Z,5.4
2018-09-09T03:50:50.260Z,5.5
2018-09-09T03:52:50.282Z,5.3
2018-09-09T03:54:50.273Z,5.3
2018-09-09T03:56:50.440Z,5.6
2018-09-09T03:58:50.501Z,5.3
2018-09-09T04:00:49.559Z,5.6
2018-09-09T04:02:49.681Z,5.6
2018-09-09T04:04:50.193Z,5.3
2018-09-09T04:06:50.327Z,5.2
2018-09-09T04:08:50.394Z,5.0
2018-09-09T04:10:50.491Z,5.7
2018-09-09T04:12:49.531Z,5.7
2018-09-09T04:14:49.657Z,5.6
2018-09-09T04:16:49.944Z,5.5
2018-09-09T04:18:49.963Z,5.7
2018-09-09T04:20:50.059Z,5.7
2018-09-09T04:22:50.150Z,5.2
2018-09-09T04:24:50.244Z,5.2
2018-09-09T04:26:50.165Z,5.5
2018-09-09T04:28:50.220Z,5.3
2018-09-09T04:30:50.316Z,5.3
2018-09-09T04:32:49.672Z,5.2
2018-09-09T04:34:50.214Z,5.3
2018-09-09T04:36:50.515Z,5.3
2018-09-09T04:38:49.529Z,5.3
2018-09-09T04:40:49.607Z,5.0
2018-09-09T04:42:49.718Z,5.0
2018-09-09T04:44:49.762Z,5.1
2018-09-09T04:46:50.079Z,5.2
2018-09-09T04:48:50.093Z,5.0
2018-09-09T04:50:50.141Z,5.0
2018-09-09T04:52:50.238Z,4.9
2018-09-09T04:54:50.228Z,4.8
2018-09-09T04:56:49.535Z,4.8
2018-09-09T04:58:49.595Z,4.7
2018-09-09T05:00:49.691Z,4.7
2018-09-09T05:02:49.727Z,5.0
2018-09-09T05:04:49.957Z,5.1
2018-09-09T05:06:50.199Z,5.3
2018-09-09T05:08:50.227Z,4.9
2018-09-09T05:10:50.171Z,4.9
2018-09-09T05:12:50.227Z,4.9
2018-09-09T05:14:50.405Z,5.0
2018-09-09T05:16:49.594Z,5.1
2018-09-09T05:18:49.674Z,5.1
2018-09-09T05:20:49.843Z,5.4
2018-09-09T05:22:50.052Z,5.0
2018-09-09T05:24:50.047Z,4.9
2018-09-09T05:26:50.385Z,5.0
2018-09-09T05:28:50.388Z,5.0
2018-09-09T05:30:50.402Z,4.9
2018-09-09T05:32:50.378Z,5.2
2018-09-09T05:34:49.828Z,4.7
2018-09-09T05:36:49.770Z,4.5
2018-09-09T05:38:49.906Z,4.5
2018-09-09T05:40:49.966Z,3.9
2018-09-09T05:42:50.002Z,4.5
2018-09-09T05:44:50.199Z,4.6
2018-09-09T05:46:49.947Z,4.7
2018-09-09T05:48:49.931Z,4.7
2018-09-09T05:50:50.079Z,4.7
2018-09-09T05:52:50.078Z,5.1
2018-09-09T05:54:50.139Z,6.1
2018-09-09T05:56:50.355Z,5.7
2018-09-09T05:58:50.394Z,5.7
2018-09-09T06:00:50.362Z,5.5
2018-09-09T06:02:50.465Z,5.3
2018-09-09T06:04:49.848Z,5.3
2018-09-09T06:06:50.096Z,5.3
2018-09-09T06:08:50.097Z,5.4
2018-09-09T06:10:50.091Z,4.9
2018-09-09T06:12:50.150Z,4.8
2018-09-09T06:14:50.206Z,4.8
2018-09-09T06:16:50.499Z,4.8
2018-09-09T06:18:49.876Z,4.6
2018-09-09T06:20:49.902Z,4.4
2018-09-09T06:22:50.049Z,4.2
2018-09-09T06:24:50.068Z,4.5
2018-09-09T06:26:50.302Z,4.2
2018-09-09T06:28:50.444Z,4.2
2018-09-09T06:30:49.561Z,4.1
2018-09-09T06:32:49.763Z,4.4
2018-09-09T06:34:50.234Z,4.2
2018-09-09T06:36:50.489Z,4.2
2018-09-09T06:38:50.592Z,4.2
2018-09-09T06:40:49.938Z,3.9
2018-09-09T06:42:49.961Z,4.3
2018-09-09T06:44:50.097Z,3.6
2018-09-09T06:46:50.280Z,3.6
2018-09-09T06:48:50.302Z,4.0
2018-09-09T06:50:49.521Z,3.8
2018-09-09T06:52:49.782Z,4.1
2018-09-09T06:54:49.813Z,4.4
2018-09-09T06:56:50.176Z,4.4
2018-09-09T06:58:50.224Z,4.1
2018-09-09T07:00:50.278Z,4.2
2018-09-09T07:02:50.358Z,4.1
2018-09-09T07:04:49.710Z,4.4
2018-09-09T07:06:50.068Z,4.4
2018-09-09T07:08:50.200Z,4.4
2018-09-09T07:10:50.400Z,4.5
2018-09-09T07:12:49.833Z,4.3
2018-09-09T07:14:49.888Z,4.7
2018-09-09T07:16:50.137Z,4.7
2018-09-09T07:18:50.179Z,4.6
2018-09-09T07:20:50.257Z,4.3
2018-09-09T07:22:50.447Z,4.7
2018-09-09T07:24:50.446Z,4.7
2018-09-09T07:26:49.744Z,4.5
2018-09-09T07:28:49.803Z,4.6
2018-09-09T07:30:49.918Z,4.7
2018-09-09T07:32:49.964Z,4.9
2018-09-09T07:34:50.191Z,4.9
2018-09-09T07:36:50.533Z,5.0
2018-09-09T07:38:49.582Z,4.6
2018-09-09T07:40:49.607Z,4.4
2018-09-09T07:42:49.621Z,4.6
2018-09-09T07:44:49.723Z,4.6
2018-09-09T07:46:49.950Z,4.7
2018-09-09T07:48:50.010Z,4.8
2018-09-09T07:50:50.332Z,4.8
2018-09-09T07:52:49.827Z,4.7
2018-09-09T07:54:50.063Z,4.7
2018-09-09T07:56:50.192Z,4.8
2018-09-09T07:58:50.215Z,4.8
2018-09-09T08:00:50.230Z,4.5
2018-09-09T08:02:50.312Z,4.5
2018-09-09T08:04:49.678Z,4.7
2018-09-09T08:06:50.063Z,4.5
2018-09-09T08:08:50.165Z,5.1
2018-09-09T08:10:50.226Z,5.2
2018-09-09T08:12:50.410Z,5.2
2018-09-09T08:14:50.464Z,5.2
2018-09-09T08:16:49.740Z,5.6
2018-09-09T08:18:49.789Z,5.4
2018-09-09T08:20:49.951Z,5.4
2018-09-09T08:22:49.991Z,5.4
2018-09-09T08:24:50.046Z,5.2
2018-09-09T08:26:50.325Z,5.3
2018-09-09T08:28:50.355Z,5.3
2018-09-09T08:30:50.394Z,5.4
2018-09-09T08:32:50.501Z,5.8
2018-09-09T08:34:50.173Z,5.5
2018-09-09T08:36:49.903Z,5.5
2018-09-09T08:38:49.955Z,9.4
2018-09-09T08:40:49.971Z,9.4
2018-09-09T08:42:50.139Z,5.9
2018-09-09T08:44:50.176Z,5.6
2018-09-09T08:46:50.430Z,5.3
2018-09-09T08:48:50.470Z,5.3
2018-09-09T08:50:49.703Z,6.4
2018-09-09T08:52:49.727Z,6.4
2018-09-09T08:54:49.803Z,6.4
2018-09-09T08:56:49.905Z,7.1
2018-09-09T08:58:49.941Z,6.7
2018-09-09T09:00:49.972Z,6.8
2018-09-09T09:02:50.022Z,6.8
2018-09-09T09:04:50.290Z,7.0
2018-09-09T09:06:49.577Z,7.2
2018-09-09T09:08:49.656Z,7.2
2018-09-09T09:10:49.754Z,7.6
2018-09-09T09:12:49.902Z,7.3
2018-09-09T09:14:50.198Z,7.3
2018-09-09T09:16:49.884Z,7.9
2018-09-09T09:18:49.939Z,6.3
2018-09-09T09:20:50.039Z,6.3
2018-09-09T09:22:50.159Z,7.0
2018-09-09T09:24:50.304Z,6.5
2018-09-09T09:26:49.723Z,6.5
2018-09-09T09:28:49.839Z,5.5
2018-09-09T09:30:50.219Z,5.5
2018-09-09T09:32:50.005Z,5.5
2018-09-09T09:34:50.283Z,4.9
2018-09-09T09:36:50.517Z,4.6
2018-09-09T09:38:49.565Z,4.6
2018-09-09T09:40:49.685Z,4.0
2018-09-09T09:42:49.672Z,4.0
2018-09-09T09:44:49.943Z,3.5
2018-09-09T09:46:50.567Z,3.2
2018-09-09T09:48:49.570Z,3.2
2018-09-09T09:50:49.735Z,3.2
2018-09-09T09:52:49.756Z,3.0
2018-09-09T09:54:49.771Z,2.7
2018-09-09T09:56:49.987Z,3.0
2018-09-09T09:58:50.067Z,3.0
2018-09-09T10:00:50.198Z,2.5
2018-09-09T10:02:50.240Z,2.4
2018-09-09T10:04:49.615Z,2.3
2018-09-09T10:06:49.918Z,2.3
2018-09-09T10:08:50.104Z,2.2
2018-09-09T10:10:50.224Z,2.2
2018-09-09T10:12:50.234Z,2.2
2018-09-09T10:14:50.455Z,2.0
2018-09-09T10:16:49.730Z,2.0
2018-09-09T10:18:49.785Z,1.9
2018-09-09T10:20:49.851Z,2.1
2018-09-09T10:22:50.035Z,2.1
2018-09-09T10:24:49.814Z,2.2
2018-09-09T10:26:49.957Z,2.2
2018-09-09T10:28:50.015Z,2.8
2018-09-09T10:30:50.156Z,2.8
2018-09-09T10:32:50.301Z,2.4
2018-09-09T10:34:49.668Z,2.4
2018-09-09T10:36:49.905Z,2.1
2018-09-09T10:38:50.070Z,1.9
2018-09-09T10:40:50.270Z,1.8
2018-09-09T10:42:49.545Z,1.9
2018-09-09T10:44:49.646Z,1.9
2018-09-09T10:46:50.283Z,1.8
2018-09-09T10:48:50.036Z,1.8
2018-09-09T10:50:50.136Z,1.9
2018-09-09T10:52:50.225Z,1.8
2018-09-09T10:54:50.221Z,1.8
2018-09-09T10:56:50.471Z,2.0
2018-09-09T10:58:49.627Z,2.0
2018-09-09T11:00:50.017Z,2.0
2018-09-09T11:02:50.158Z,1.9
2018-09-09T11:04:49.549Z,1.9
2018-09-09T11:06:49.968Z,2.1
2018-09-09T11:08:50.209Z,2.3
2018-09-09T11:10:50.263Z,1.9
2018-09-09T11:12:50.575Z,2.0
2018-09-09T11:14:49.787Z,2.0
2018-09-09T11:16:50.026Z,2.1
2018-09-09T11:18:50.165Z,2.1
2018-09-09T11:20:50.306Z,2.4
2018-09-09T11:22:50.481Z,2.0
2018-09-09T11:24:49.578Z,2.0
2018-09-09T11:26:49.854Z,1.9
2018-09-09T11:28:49.991Z,2.2
2018-09-09T11:30:49.966Z,2.0
2018-09-09T11:32:49.989Z,2.0
2018-09-09T11:34:50.339Z,2.4
2018-09-09T11:36:49.598Z,2.4
2018-09-09T11:38:49.677Z,2.4
2018-09-09T11:40:49.973Z,2.1
2018-09-09T11:42:49.543Z,1.8
2018-09-09T11:44:49.567Z,1.8
2018-09-09T11:46:49.825Z,1.8
2018-09-09T11:48:49.924Z,2.1
2018-09-09T11:50:50.216Z,2.0
2018-09-09T11:52:50.240Z,1.9
2018-09-09T11:54:50.280Z,1.9
2018-09-09T11:56:50.494Z,2.1
2018-09-09T11:58:49.657Z,2.1
2018-09-09T12:00:49.735Z,2.1
2018-09-09T12:02:49.852Z,2.1
2018-09-09T12:04:50.095Z,1.9
2018-09-09T12:06:50.335Z,1.9
2018-09-09T12:08:50.360Z,2.0
2018-09-09T12:10:49.550Z,1.9
2018-09-09T12:12:49.616Z,2.0
2018-09-09T12:14:49.743Z,2.0
2018-09-09T12:16:49.994Z,2.0
2018-09-09T12:18:50.019Z,2.1
2018-09-09T12:20:50.026Z,2.1
2018-09-09T12:22:50.126Z,1.8
2018-09-09T12:24:50.169Z,1.8
2018-09-09T12:26:50.306Z,2.0
2018-09-09T12:28:50.296Z,2.0
2018-09-09T12:30:50.262Z,2.3
2018-09-09T12:32:50.316Z,2.3
2018-09-09T12:34:49.830Z,2.2
2018-09-09T12:36:50.038Z,1.9
2018-09-09T12:38:49.977Z,2.3
2018-09-09T12:40:50.017Z,2.3
2018-09-09T12:42:50.110Z,1.8
2018-09-09T12:44:50.199Z,1.8
2018-09-09T12:46:50.518Z,1.9
2018-09-09T12:48:49.541Z,1.9
2018-09-09T12:50:50.432Z,2.0
2018-09-09T12:52:49.772Z,2.0
2018-09-09T12:54:49.783Z,1.9
2018-09-09T12:56:49.943Z,1.7
2018-09-09T12:58:50.152Z,1.6
2018-09-09T13:00:50.211Z,2.3
2018-09-09T13:02:50.253Z,2.3
2018-09-09T13:04:50.514Z,1.7
2018-09-09T13:06:49.757Z,1.6
2018-09-09T13:08:49.738Z,1.6
2018-09-09T13:10:49.837Z,1.6
2018-09-09T13:12:49.906Z,1.6
2018-09-09T13:14:49.548Z,1.4
2018-09-09T13:16:49.853Z,1.4
2018-09-09T13:18:50.103Z,1.4
2018-09-09T13:20:50.456Z,1.4
2018-09-09T13:22:49.642Z,1.4
2018-09-09T13:24:49.661Z,3.1
2018-09-09T13:26:50.056Z,1.9
2018-09-09T13:28:50.128Z,1.5
2018-09-09T13:30:50.294Z,1.5
2018-09-09T13:32:50.269Z,1.5
2018-09-09T13:34:49.650Z,1.3
2018-09-09T13:36:49.909Z,1.5
2018-09-09T13:38:49.977Z,1.6
2018-09-09T13:40:49.996Z,1.6
2018-09-09T13:42:50.002Z,1.6
2018-09-09T13:44:50.039Z,1.6
2018-09-09T13:46:50.218Z,1.4
2018-09-09T13:48:50.172Z,1.5
2018-09-09T13:50:50.247Z,1.5
2018-09-09T13:52:50.294Z,1.7
2018-09-09T13:54:50.406Z,1.5
2018-09-09T13:56:49.733Z,1.5
2018-09-09T13:58:49.806Z,1.6
2018-09-09T14:00:49.822Z,1.6
2018-09-09T14:02:49.848Z,1.4
2018-09-09T14:04:50.280Z,1.4
2018-09-09T14:06:49.548Z,1.5
2018-09-09T14:08:49.705Z,1.6
2018-09-09T14:10:49.852Z,1.6
2018-09-09T14:12:49.965Z,1.7
2018-09-09T14:14:50.011Z,1.5
2018-09-09T14:16:50.172Z,1.4
2018-09-09T14:18:50.236Z,1.4
2018-09-09T14:20:50.423Z,1.5
2018-09-09T14:22:49.674Z,1.6
2018-09-09T14:24:49.709Z,1.5
2018-09-09T14:26:49.861Z,1.5
2018-09-09T14:28:49.899Z,1.3
2018-09-09T14:30:49.938Z,1.4
2018-09-09T14:32:50.092Z,1.6
2018-09-09T14:34:50.502Z,1.4
2018-09-09T14:36:49.855Z,1.3
2018-09-09T14:38:49.858Z,1.3
2018-09-09T14:40:49.949Z,1.5
2018-09-09T14:42:50.022Z,1.6
2018-09-09T14:44:50.084Z,1.4
2018-09-09T14:46:50.361Z,1.4
2018-09-09T14:48:50.464Z,1.5
2018-09-09T14:50:49.570Z,1.6
2018-09-09T14:52:49.668Z,1.5
2018-09-09T14:54:49.691Z,1.5
2018-09-09T14:56:50.060Z,1.5
2018-09-09T14:58:50.108Z,1.6
2018-09-09T15:00:50.231Z,1.5
2018-09-09T15:02:50.361Z,1.5
2018-09-09T15:04:49.932Z,1.4
2018-09-09T15:06:50.396Z,1.4
2018-09-09T15:08:49.820Z,1.5
2018-09-09T15:10:49.821Z,1.5
2018-09-09T15:12:49.859Z,1.7
2018-09-09T15:14:49.994Z,1.7
2018-09-09T15:16:50.241Z,1.5
2018-09-09T15:18:50.458Z,1.6
2018-09-09T15:20:50.452Z,1.6
2018-09-09T15:22:50.382Z,1.6
2018-09-09T15:24:49.514Z,1.7
2018-09-09T15:26:49.933Z,1.7
2018-09-09T15:28:50.311Z,1.6
2018-09-09T15:30:49.640Z,1.5
2018-09-09T15:32:49.721Z,1.6
2018-09-09T15:34:50.093Z,1.5
2018-09-09T15:36:50.249Z,1.5
2018-09-09T15:38:50.249Z,1.5
2018-09-09T15:40:50.257Z,1.6
2018-09-09T15:42:50.267Z,1.6
2018-09-09T15:44:50.345Z,1.5
2018-09-09T15:46:49.573Z,1.5
2018-09-09T15:48:49.547Z,1.4
2018-09-09T15:50:49.574Z,1.4
2018-09-09T15:52:49.705Z,1.7
2018-09-09T15:54:49.709Z,1.7
2018-09-09T15:56:50.026Z,1.7
2018-09-09T15:58:50.164Z,1.6
2018-09-09T16:00:50.148Z,1.6
2018-09-09T16:02:50.148Z,1.7
2018-09-09T16:04:49.523Z,1.7
2018-09-09T16:06:49.787Z,1.7
2018-09-09T16:08:49.791Z,1.6
2018-09-09T16:10:49.854Z,1.6
2018-09-09T16:12:50.042Z,1.6
2018-09-09T16:14:50.353Z,1.8
2018-09-09T16:16:49.670Z,1.7
2018-09-09T16:18:49.811Z,1.7
2018-09-09T16:20:50.373Z,1.7
2018-09-09T16:22:50.335Z,1.7
2018-09-09T16:24:50.443Z,1.7
2018-09-09T16:26:49.678Z,1.7
2018-09-09T16:28:49.759Z,1.8
2018-09-09T16:30:49.895Z,1.6
2018-09-09T16:32:49.681Z,1.6
2018-09-09T16:34:50.111Z,1.6
2018-09-09T16:36:50.208Z,1.9
2018-09-09T16:38:50.207Z,1.6
2018-09-09T16:40:50.303Z,1.6
2018-09-09T16:42:50.245Z,1.9
2018-09-09T16:44:50.303Z,1.9
2018-09-09T16:46:49.874Z,1.7
2018-09-09T16:48:50.321Z,1.8
2018-09-09T16:50:50.393Z,1.8
2018-09-09T16:52:50.411Z,1.8
2018-09-09T16:54:49.846Z,1.7
2018-09-09T16:56:50.096Z,1.8
2018-09-09T16:58:50.225Z,1.8
2018-09-09T17:00:50.273Z,1.7
2018-09-09T17:02:50.278Z,1.7
2018-09-09T17:04:49.967Z,1.9
2018-09-09T17:06:50.246Z,1.8
2018-09-09T17:08:50.348Z,2.0
2018-09-09T17:10:50.391Z,2.1
2018-09-09T17:12:50.462Z,2.1
2018-09-09T17:14:50.514Z,1.8
2018-09-09T17:16:50.043Z,2.1
2018-09-09T17:18:49.633Z,2.2
2018-09-09T17:20:49.605Z,2.1
2018-09-09T17:22:49.686Z,2.1
2018-09-09T17:24:49.749Z,2.2
2018-09-09T17:26:50.024Z,3.2
2018-09-09T17:28:50.368Z,2.4
2018-09-09T17:30:50.344Z,2.4
2018-09-09T17:32:50.429Z,2.5
2018-09-09T17:34:49.963Z,2.5
2018-09-09T17:36:50.137Z,2.3
2018-09-09T17:38:50.141Z,2.1
2018-09-09T17:40:50.153Z,2.1
2018-09-09T17:42:50.229Z,2.3
2018-09-09T17:44:50.272Z,2.2
2018-09-09T17:46:50.513Z,2.0
2018-09-09T17:48:49.556Z,2.0
2018-09-09T17:50:49.701Z,2.2
2018-09-09T17:52:49.771Z,2.9
2018-09-09T17:54:50.015Z,2.9
2018-09-09T17:56:50.164Z,2.7
2018-09-09T17:58:50.242Z,2.8
2018-09-09T18:00:50.280Z,2.8
2018-09-09T18:02:50.323Z,2.6
2018-09-09T18:04:49.730Z,2.6
2018-09-09T18:06:49.907Z,2.8
2018-09-09T18:08:49.915Z,2.8
2018-09-09T18:10:50.018Z,3.2
2018-09-09T18:12:50.134Z,2.5
2018-09-09T18:14:50.222Z,2.6
2018-09-09T18:16:50.356Z,2.6
2018-09-09T18:18:50.431Z,2.6
2018-09-09T18:20:50.764Z,2.9
2018-09-09T18:22:50.312Z,2.6
2018-09-09T18:24:50.517Z,2.8
2018-09-09T18:26:49.763Z,2.8
2018-09-09T18:28:49.813Z,3.0
2018-09-09T18:30:49.850Z,3.2
2018-09-09T18:32:49.886Z,3.8
2018-09-09T18:34:50.304Z,3.8
2018-09-09T18:36:49.742Z,2.9
2018-09-09T18:38:49.970Z,2.9
2018-09-09T18:40:49.547Z,2.7
2018-09-09T18:42:49.570Z,2.9
2018-09-09T18:44:49.765Z,2.8
2018-09-09T18:46:50.171Z,3.3
2018-09-09T18:48:50.217Z,3.3
2018-09-09T18:50:50.255Z,2.7
2018-09-09T18:52:50.234Z,2.7
2018-09-09T18:54:50.316Z,3.2
2018-09-09T18:56:49.583Z,3.3
2018-09-09T18:58:49.718Z,3.3
2018-09-09T19:00:49.809Z,3.3
2018-09-09T19:02:49.884Z,3.8
2018-09-09T19:04:50.224Z,2.8
2018-09-09T19:06:50.512Z,3.1
2018-09-09T19:08:49.591Z,3.1
2018-09-09T19:10:49.731Z,3.0
2018-09-09T19:12:49.802Z,3.0
2018-09-09T19:14:49.879Z,3.0
2018-09-09T19:16:50.100Z,2.9
2018-09-09T19:18:50.166Z,2.9
2018-09-09T19:20:50.212Z,3.2
2018-09-09T19:22:50.456Z,3.2
2018-09-09T19:24:49.553Z,2.8
2018-09-09T19:26:49.718Z,2.8
2018-09-09T19:28:49.908Z,2.6
2018-09-09T19:30:50.057Z,2.7
2018-09-09T19:32:50.085Z,2.8
2018-09-09T19:34:50.468Z,2.8
2018-09-09T19:36:49.670Z,2.9
2018-09-09T19:38:49.640Z,2.8
2018-09-09T19:40:49.751Z,2.8
2018-09-09T19:42:49.937Z,3.0
2018-09-09T19:44:49.881Z,3.0
2018-09-09T19:46:50.043Z,3.0
2018-09-09T19:48:50.046Z,3.2
2018-09-09T19:50:50.033Z,3.1
2018-09-09T19:52:49.978Z,3.1
2018-09-09T19:54:50.013Z,3.1
2018-09-09T19:56:50.184Z,3.1
2018-09-09T19:58:50.207Z,3.2
2018-09-09T20:00:50.190Z,3.2
2018-09-09T20:02:50.190Z,3.3
2018-09-09T20:04:50.585Z,3.6
2018-09-09T20:06:50.287Z,3.6
2018-09-09T20:08:50.258Z,3.8
2018-09-09T20:10:50.207Z,4.4
2018-09-09T20:12:50.217Z,5.0
2018-09-09T20:14:50.183Z,5.0
2018-09-09T20:16:50.390Z,4.6
2018-09-09T20:18:50.371Z,4.1
2018-09-09T20:20:49.653Z,3.9
2018-09-09T20:22:49.853Z,4.0
2018-09-09T20:24:50.143Z,4.0
2018-09-09T20:26:50.326Z,4.0
2018-09-09T20:28:50.398Z,4.2
2018-09-09T20:30:49.579Z,4.2
2018-09-09T20:32:49.568Z,4.1
2018-09-09T20:34:50.004Z,4.1
2018-09-09T20:36:50.142Z,3.5
2018-09-09T20:38:50.453Z,3.6
2018-09-09T20:40:49.976Z,3.5
2018-09-09T20:42:50.090Z,3.6
2018-09-09T20:44:50.147Z,3.6
2018-09-09T20:46:50.344Z,3.5
2018-09-09T20:48:50.363Z,3.5
2018-09-09T20:50:50.353Z,3.7
2018-09-09T20:52:50.489Z,3.7
2018-09-09T20:54:50.497Z,3.4
2018-09-09T20:56:49.756Z,3.7
2018-09-09T20:58:49.787Z,3.7
2018-09-09T21:00:49.790Z,3.8
2018-09-09T21:02:49.805Z,3.8
2018-09-09T21:04:50.046Z,3.7
2018-09-09T21:06:50.191Z,3.7
2018-09-09T21:08:50.210Z,4.0
2018-09-09T21:10:50.296Z,3.9
2018-09-09T21:12:50.266Z,3.9
2018-09-09T21:14:50.309Z,3.7
2018-09-09T21:16:50.388Z,4.1
2018-09-09T21:18:50.373Z,3.6
2018-09-09T21:20:50.453Z,3.7
2018-09-09T21:22:50.419Z,3.7
2018-09-09T21:24:50.418Z,3.8
2018-09-09T21:26:49.768Z,3.9
2018-09-09T21:28:49.861Z,4.1
2018-09-09T21:30:49.884Z,3.7
2018-09-09T21:32:49.895Z,3.7
2018-09-09T21:34:50.257Z,3.8
2018-09-09T21:36:50.409Z,3.8
2018-09-09T21:38:50.414Z,3.9
2018-09-09T21:40:49.616Z,3.9
2018-09-09T21:42:49.602Z,3.7
2018-09-09T21:44:49.672Z,4.0
2018-09-09T21:46:49.801Z,3.9
2018-09-09T21:48:49.828Z,3.9
2018-09-09T21:50:49.826Z,3.7
2018-09-09T21:52:49.900Z,4.1
2018-09-09T21:54:49.900Z,4.0
2018-09-09T21:56:50.132Z,4.3
2018-09-09T21:58:50.268Z,3.9
2018-09-09T22:00:50.250Z,3.9
2018-09-09T22:02:50.330Z,4.0
2018-09-09T22:04:50.014Z,4.0
2018-09-09T22:06:50.178Z,4.1
2018-09-09T22:08:50.258Z,4.1
2018-09-09T22:10:50.283Z,4.1
2018-09-09T22:12:50.212Z,4.1
2018-09-09T22:14:50.275Z,3.8
2018-09-09T22:16:50.509Z,4.0
2018-09-09T22:18:49.601Z,4.0
2018-09-09T22:20:49.659Z,3.8
2018-09-09T22:22:49.698Z,3.9
2018-09-09T22:24:49.825Z,4.1
2018-09-09T22:26:49.995Z,4.3
2018-09-09T22:28:49.991Z,4.3
2018-09-09T22:30:50.000Z,4.1
2018-09-09T22:32:50.212Z,4.1
2018-09-09T22:34:49.693Z,4.1
2018-09-09T22:36:49.842Z,4.1
2018-09-09T22:38:49.891Z,4.1
2018-09-09T22:40:49.956Z,4.1
2018-09-09T22:42:50.140Z,4.0
2018-09-09T22:44:50.123Z,3.9
2018-09-09T22:46:50.251Z,3.7
2018-09-09T22:48:50.182Z,3.7
2018-09-09T22:50:50.268Z,3.9
2018-09-09T22:52:50.360Z,4.0
2018-09-09T22:54:49.541Z,4.0
2018-09-09T22:56:49.797Z,4.0
2018-09-09T22:58:49.892Z,4.0
2018-09-09T23:00:49.869Z,3.7
2018-09-09T23:02:50.016Z,4.4
2018-09-09T23:04:50.417Z,3.9
2018-09-09T23:06:49.672Z,3.9
2018-09-09T23:08:49.695Z,3.9
2018-09-09T23:10:49.759Z,4.2
2018-09-09T23:12:49.820Z,4.3
2018-09-09T23:14:49.971Z,4.3
2018-09-09T23:16:50.392Z,4.3
2018-09-09T23:18:50.362Z,4.0
2018-09-09T23:20:50.353Z,4.1
2018-09-09T23:22:50.356Z,3.9
2018-09-09T23:24:50.333Z,4.0
2018-09-09T23:26:49.588Z,4.0
2018-09-09T23:28:49.663Z,4.0
2018-09-09T23:30:49.725Z,3.9
2018-09-09T23:32:49.780Z,3.8
2018-09-09T23:34:50.230Z,4.0
2018-09-09T23:36:50.419Z,4.0
2018-09-09T23:38:50.418Z,4.1
2018-09-09T23:40:50.453Z,4.2
2018-09-09T23:42:50.389Z,4.2
2018-09-09T23:44:50.386Z,4.3
2018-09-09T23:46:49.607Z,4.3
2018-09-09T23:48:49.652Z,4.1
2018-09-09T23:50:49.745Z,4.2
2018-09-09T23:52:49.689Z,4.5
2018-09-09T23:54:49.795Z,4.2
2018-09-09T23:56:50.007Z,4.2
2018-09-09T23:58:50.014Z,4.2
